This is the latest recevied weather packets stored in our database for station/object GW1544. If no packets are shown the sender has not sent any weather packets the latest 10 day(s).
| Time | Temp. | Humidity | Pressure | Rain* | Wind** | Luminosity | Snow |
|---|---|---|---|---|---|---|---|
| 1777507230 | 14.44° C | 93% | 1017.6 hPa | 12.95 mm | - | - | - |
| 1777506139 | 15.56° C | 90% | 1017.6 hPa | 12.95 mm | - | - | - |
| 1777500023 | 17.22° C | 81% | 1017.2 hPa | 12.95 mm | - | - | - |
| 1777497889 | 16.67° C | 84% | 1016.9 hPa | 12.95 mm | - | - | - |
| 1777492106 | 17.78° C | 91% | 1015.2 hPa | 12.95 mm | - | - | - |
| 1777491380 | 17.78° C | 94% | 1015.2 hPa | 12.95 mm | - | - | - |
| 1777485267 | 21.67° C | 90% | 1014.2 hPa | 8.38 mm | - | - | - |
| 1777481669 | 19.44° C | 95% | 1015.2 hPa | 8.38 mm | - | - | - |
| 1777480578 | 17.78° C | 95% | 1015.9 hPa | 5.84 mm | - | - | - |
| 1777480229 | 18.33° C | 94% | 1015.5 hPa | 4.83 mm | - | - | - |
| 1777477711 | 18.33° C | 95% | 1015.9 hPa | 2.79 mm | - | - | - |
| 1777476262 | 17.78° C | 95% | 1016.2 hPa | 2.79 mm | - | - | - |
| 1777475927 | 17.78° C | 95% | 1016.5 hPa | 2.79 mm | - | - | - |
| 1777474460 | 17.78° C | 96% | 1016.5 hPa | 2.79 mm | - | - | - |
| 1777469810 | 16.11° C | 100% | 1016.9 hPa | 2.54 mm | - | - | - |
| 1777469074 | 16.11° C | 99% | 1016.9 hPa | 2.54 mm | - | - | - |
| 1777467288 | 16.11° C | 100% | 1017.6 hPa | 2.29 mm | - | - | - |
| 1777466905 | 16.11° C | 100% | 1017.2 hPa | 2.29 mm | - | - | - |
| 1777465467 | 15.56° C | 100% | 1017.6 hPa | 2.29 mm | - | - | - |
| 1777464765 | 15.56° C | 100% | 1017.9 hPa | 2.29 mm | - | - | - |
| 1777464394 | 15.56° C | 100% | 1017.9 hPa | 2.29 mm | - | - | - |
| 1777462581 | 15.56° C | 99% | 1017.9 hPa | 2.03 mm | - | - | - |
| 1777453241 | 16.11° C | 99% | 1017.6 hPa | 1.78 mm | - | - | - |
| 1777452889 | 16.67° C | 99% | 1017.2 hPa | 1.78 mm | - | - | - |
| 1777452153 | 16.67° C | 99% | 1017.2 hPa | 1.78 mm | - | - | - |
* Rain since midnight (hover to see other rain measurements)
** Current wind speed in m/s (hover to see current wind gust speed)